Time;durP1;ratioP1;P1;durP2;ratioP2;P2;SDS_P1;SDS_P2;PMS_P1;PMS_P2;Temp;Humidity;BMP_temperature;BMP_pressure;BME280_temperature;BME280_humidity;BME280_pressure;Samples;Min_cycle;Max_cycle;Signal;HPM_P1;HPM_P2
2021/12/01 00:02:11;;;;;;;4.50;1.60;;;5.40;97.30;;;;;;4979119;28;20473;-86
2021/12/01 00:04:37;;;;;;;9.63;2.30;;;5.40;97.30;;;;;;4979290;28;20198;-86
2021/12/01 00:07:03;;;;;;;4.80;1.60;;;5.40;97.30;;;;;;4978446;28;20929;-85
2021/12/01 00:09:29;;;;;;;6.53;1.83;;;5.40;97.30;;;;;;4979885;28;20248;-84
2021/12/01 00:11:54;;;;;;;3.87;1.67;;;5.40;97.30;;;;;;4979660;28;20940;-86
2021/12/01 00:14:20;;;;;;;3.37;1.50;;;5.40;97.30;;;;;;4981162;28;20171;-86
2021/12/01 00:16:46;;;;;;;9.93;1.67;;;5.40;97.30;;;;;;4979592;28;20203;-87
2021/12/01 00:19:12;;;;;;;6.57;2.27;;;5.40;97.30;;;;;;4978962;28;20501;-85
2021/12/01 00:21:38;;;;;;;6.20;1.80;;;5.40;97.30;;;;;;4978773;28;20190;-84
2021/12/01 00:24:03;;;;;;;9.20;2.30;;;5.40;97.30;;;;;;4978566;28;20182;-87
2021/12/01 00:26:29;;;;;;;13.70;1.70;;;5.40;97.30;;;;;;4979080;28;20203;-85
2021/12/01 00:28:54;;;;;;;2.97;1.47;;;5.40;97.30;;;;;;4978774;28;20687;-85
2021/12/01 00:31:20;;;;;;;4.97;1.60;;;5.30;97.30;;;;;;4978813;28;20559;-85
2021/12/01 00:33:46;;;;;;;2.40;1.47;;;5.30;97.30;;;;;;4978277;28;20182;-86
2021/12/01 00:36:13;;;;;;;3.60;1.70;;;5.30;97.30;;;;;;4979333;28;20202;-85
2021/12/01 00:38:40;;;;;;;10.17;1.67;;;5.30;97.30;;;;;;4979164;28;20261;-85
2021/12/01 00:41:07;;;;;;;12.90;2.07;;;5.30;97.30;;;;;;4978254;28;20436;-87
2021/12/01 00:43:36;;;;;;;13.33;2.37;;;5.30;97.30;;;;;;4979737;28;20464;-85
2021/12/01 00:46:11;;;;;;;2.63;1.70;;;5.30;97.30;;;;;;4978366;28;20519;-85
2021/12/01 00:48:37;;;;;;;6.03;1.80;;;5.30;97.30;;;;;;4978784;28;20476;-85
2021/12/01 00:51:02;;;;;;;8.07;1.70;;;5.20;97.30;;;;;;4978707;28;20434;-87
2021/12/01 00:53:28;;;;;;;13.23;1.87;;;5.20;97.30;;;;;;4981649;28;20178;-85
2021/12/01 00:55:54;;;;;;;6.50;1.77;;;5.20;97.30;;;;;;4976973;28;20198;-85
2021/12/01 00:58:19;;;;;;;6.40;2.23;;;5.20;97.30;;;;;;4977550;28;20182;-85
2021/12/01 01:00:48;;;;;;;10.80;2.23;;;5.20;97.30;;;;;;4977520;28;20190;-86
2021/12/01 01:03:15;;;;;;;6.80;2.37;;;5.20;97.30;;;;;;4990349;28;20202;-87
2021/12/01 01:05:41;;;;;;;3.57;1.93;;;5.20;97.30;;;;;;4996598;28;20525;-86
2021/12/01 01:08:07;;;;;;;5.67;2.13;;;5.10;97.30;;;;;;4996284;28;20424;-86
2021/12/01 01:18:47;;;;;;;8.07;2.47;;;5.10;97.30;;;;;;4997732;28;20428;-85
2021/12/01 01:21:13;;;;;;;3.10;1.93;;;5.00;97.30;;;;;;4995680;28;20703;-87
2021/12/01 01:23:39;;;;;;;7.17;2.57;;;5.00;97.30;;;;;;4994109;28;20432;-82
2021/12/01 01:26:12;;;;;;;4.93;2.27;;;5.00;97.30;;;;;;4993284;28;20448;-83
2021/12/01 01:28:40;;;;;;;4.67;2.37;;;5.00;97.30;;;;;;4993001;28;20464;-82
2021/12/01 01:31:19;;;;;;;5.97;2.30;;;5.00;97.30;;;;;;4991613;28;20417;-82
2021/12/01 01:33:51;;;;;;;6.77;2.47;;;4.90;97.30;;;;;;4992735;28;20425;-82
2021/12/01 01:36:20;;;;;;;9.57;2.10;;;4.90;97.30;;;;;;4992239;28;20447;-82
2021/12/01 01:38:50;;;;;;;9.03;2.00;;;4.90;97.30;;;;;;4992801;28;20429;-81
2021/12/01 01:41:20;;;;;;;3.03;2.00;;;4.90;97.30;;;;;;4994163;28;20718;-82
2021/12/01 01:43:50;;;;;;;5.80;2.00;;;4.90;97.30;;;;;;4992976;28;20524;-81
2021/12/01 01:46:22;;;;;;;4.37;2.10;;;4.90;97.30;;;;;;4991925;28;20656;-81
2021/12/01 01:51:16;;;;;;;4.80;2.13;;;4.90;97.30;;;;;;4992503;28;20906;-81
2021/12/01 01:53:42;;;;;;;10.80;2.80;;;4.90;97.30;;;;;;4992333;28;20186;-81
2021/12/01 01:56:08;;;;;;;7.07;2.30;;;4.90;97.30;;;;;;4994322;28;20488;-82
2021/12/01 01:58:34;;;;;;;10.70;2.17;;;5.00;97.30;;;;;;4993050;28;20173;-81
2021/12/01 02:01:07;;;;;;;5.13;2.40;;;4.90;97.30;;;;;;4992499;28;20487;-81
2021/12/01 02:03:41;;;;;;;2.77;2.03;;;5.00;97.30;;;;;;4992625;28;20909;-82
2021/12/01 02:06:09;;;;;;;5.47;2.20;;;5.00;97.30;;;;;;4992845;28;20443;-81
2021/12/01 02:08:37;;;;;;;3.60;2.23;;;5.00;97.30;;;;;;4992778;28;20933;-81
2021/12/01 02:11:05;;;;;;;6.90;2.00;;;5.00;97.30;;;;;;4992835;28;20417;-81
2021/12/01 02:13:31;;;;;;;7.10;2.40;;;5.00;97.30;;;;;;4993076;28;20433;-81
2021/12/01 02:15:58;;;;;;;6.10;2.60;;;5.00;97.30;;;;;;4993884;28;20439;-82
2021/12/01 02:18:25;;;;;;;4.50;2.13;;;5.10;97.30;;;;;;4993481;28;20795;-82
2021/12/01 02:21:11;;;;;;;11.33;2.77;;;5.10;97.30;;;;;;4992822;28;20413;-81
2021/12/01 02:23:45;;;;;;;9.60;2.67;;;5.10;97.30;;;;;;4992920;28;20445;-81
2021/12/01 02:26:12;;;;;;;3.83;2.23;;;5.10;97.30;;;;;;4993133;28;20519;-81
2021/12/01 02:28:41;;;;;;;6.87;2.20;;;5.10;97.30;;;;;;4990724;28;20617;-81
2021/12/01 02:31:12;;;;;;;4.53;2.50;;;5.10;97.30;;;;;;4990439;28;20409;-82
2021/12/01 02:33:40;;;;;;;6.70;2.60;;;5.10;97.30;;;;;;4991428;28;20443;-81
2021/12/01 02:36:13;;;;;;;5.97;2.47;;;5.10;97.30;;;;;;4994349;28;20433;-81
2021/12/01 02:38:42;;;;;;;6.13;2.83;;;5.20;97.30;;;;;;4994189;28;20459;-82
2021/12/01 02:41:09;;;;;;;5.53;2.10;;;5.20;97.30;;;;;;4993099;28;20863;-82
2021/12/01 02:43:35;;;;;;;3.80;2.33;;;5.20;97.30;;;;;;4994529;28;20431;-81
2021/12/01 02:46:00;;;;;;;5.00;3.70;;;5.20;97.30;;;;;;4994504;28;20440;-82
2021/12/01 02:48:26;;;;;;;4.57;2.63;;;5.20;97.30;;;;;;4987237;28;21150;-82
2021/12/01 02:50:53;;;;;;;3.07;2.03;;;5.20;97.30;;;;;;4975686;28;20522;-81
2021/12/01 02:53:23;;;;;;;3.67;2.33;;;5.20;97.30;;;;;;4976062;28;20510;-82
2021/12/01 02:55:56;;;;;;;6.60;2.67;;;5.20;97.30;;;;;;4975992;28;20448;-82
2021/12/01 02:58:23;;;;;;;3.10;2.50;;;5.20;97.30;;;;;;4980217;28;20953;-82
2021/12/01 03:00:52;;;;;;;3.97;2.57;;;5.20;97.30;;;;;;4995248;28;20497;-82
2021/12/01 03:03:19;;;;;;;4.10;2.37;;;5.20;97.30;;;;;;4995158;28;20422;-83
2021/12/01 03:05:47;;;;;;;6.07;2.60;;;5.30;97.30;;;;;;4994888;28;20452;-82
2021/12/01 03:08:15;;;;;;;5.20;2.60;;;5.30;97.30;;;;;;4994662;28;20410;-82
2021/12/01 03:10:44;;;;;;;6.43;2.70;;;5.30;97.30;;;;;;4995055;28;20424;-82
2021/12/01 03:13:09;;;;;;;4.67;3.17;;;5.30;97.30;;;;;;4995262;28;20531;-82
2021/12/01 03:15:35;;;;;;;5.10;2.90;;;5.30;97.30;;;;;;5011655;28;20776;-82
2021/12/01 03:18:01;;;;;;;10.23;3.00;;;5.30;97.30;;;;;;5012066;28;20205;-82
2021/12/01 03:20:26;;;;;;;6.73;3.30;;;5.30;97.30;;;;;;5011428;28;20178;-82
2021/12/01 03:22:52;;;;;;;5.50;3.13;;;5.30;97.30;;;;;;5011515;28;20264;-81
2021/12/01 03:25:18;;;;;;;5.10;2.80;;;5.30;97.30;;;;;;4996028;28;20181;-82
2021/12/01 03:27:43;;;;;;;6.27;3.23;;;5.30;97.30;;;;;;5011616;28;20177;-82
2021/12/01 03:30:12;;;;;;;5.50;2.90;;;5.30;97.30;;;;;;5011366;28;20221;-82
2021/12/01 03:32:39;;;;;;;4.30;2.47;;;5.30;97.30;;;;;;5011338;28;20181;-82
2021/12/01 03:35:10;;;;;;;5.17;2.70;;;5.30;97.30;;;;;;5010997;28;20471;-81
2021/12/01 03:37:37;;;;;;;4.60;2.77;;;5.40;97.30;;;;;;4996618;28;20437;-82
2021/12/01 03:40:04;;;;;;;5.80;3.10;;;5.30;97.30;;;;;;5010984;28;20421;-82
2021/12/01 03:42:30;;;;;;;6.33;2.70;;;5.40;97.30;;;;;;5011796;28;20428;-82
2021/12/01 03:44:56;;;;;;;8.67;2.77;;;5.40;97.30;;;;;;5010171;28;20496;-82
2021/12/01 03:47:22;;;;;;;5.00;2.63;;;5.40;97.30;;;;;;5011210;28;20206;-82
2021/12/01 03:49:48;;;;;;;5.10;4.40;;;5.40;97.30;;;;;;5011085;28;20495;-82
2021/12/01 03:52:16;;;;;;;4.27;2.50;;;5.40;97.30;;;;;;5010952;28;20409;-82
2021/12/01 03:54:43;;;;;;;6.87;2.30;;;5.40;97.30;;;;;;5010396;28;20177;-82
2021/12/01 03:57:09;;;;;;;3.60;3.40;;;5.40;97.30;;;;;;5010658;28;20444;-82
2021/12/01 03:59:34;;;;;;;5.53;2.00;;;5.40;97.30;;;;;;4982014;28;20418;-82
2021/12/01 04:02:00;;;;;;;4.90;2.60;;;5.40;97.30;;;;;;4974984;28;20234;-82
2021/12/01 04:04:25;;;;;;;2.87;2.10;;;5.40;97.30;;;;;;4974358;28;20735;-82
2021/12/01 04:06:51;;;;;;;3.90;2.23;;;5.40;97.30;;;;;;4975122;28;20198;-82
2021/12/01 04:09:16;;;;;;;3.73;2.20;;;5.40;97.30;;;;;;4974906;28;20211;-82
2021/12/01 04:11:42;;;;;;;2.73;1.97;;;5.40;97.30;;;;;;4974876;28;20206;-84
2021/12/01 04:14:08;;;;;;;3.50;2.37;;;5.40;97.30;;;;;;4974565;28;20418;-82
2021/12/01 04:16:34;;;;;;;3.10;2.10;;;5.40;97.30;;;;;;4974423;28;20609;-82
2021/12/01 04:19:00;;;;;;;2.27;1.80;;;5.40;97.30;;;;;;4974381;28;20430;-83
2021/12/01 04:21:27;;;;;;;3.60;2.17;;;5.40;97.30;;;;;;4975235;28;20417;-84
2021/12/01 04:23:53;;;;;;;2.17;1.87;;;5.40;97.30;;;;;;4974980;28;20229;-83
2021/12/01 04:26:23;;;;;;;1.93;1.70;;;5.40;97.30;;;;;;4974904;28;20979;-84
2021/12/01 04:28:49;;;;;;;2.90;1.80;;;5.40;97.30;;;;;;4974696;28;20465;-83
2021/12/01 04:31:14;;;;;;;4.57;1.70;;;5.50;97.30;;;;;;4974471;28;20449;-84
2021/12/01 04:33:40;;;;;;;2.97;1.80;;;5.50;97.30;;;;;;4974421;28;20264;-84
2021/12/01 04:36:06;;;;;;;1.33;1.30;;;5.50;97.30;;;;;;4974202;28;20205;-83
2021/12/01 04:38:31;;;;;;;2.83;1.90;;;5.50;97.30;;;;;;4974123;28;20255;-84
2021/12/01 04:40:57;;;;;;;2.17;1.80;;;5.60;97.30;;;;;;4974585;28;20273;-83
2021/12/01 04:43:22;;;;;;;3.40;1.30;;;5.60;97.30;;;;;;4973877;28;20174;-82
2021/12/01 04:45:52;;;;;;;2.03;1.43;;;5.60;97.30;;;;;;4974209;28;20249;-84
2021/12/01 04:48:18;;;;;;;3.90;1.73;;;5.60;97.30;;;;;;4974946;28;20179;-83
2021/12/01 04:50:43;;;;;;;3.63;1.20;;;5.60;97.30;;;;;;4973993;28;20446;-84
2021/12/01 04:53:09;;;;;;;1.90;1.50;;;5.60;97.30;;;;;;4974841;28;20221;-83
2021/12/01 04:55:35;;;;;;;1.73;1.40;;;5.60;97.30;;;;;;4986266;28;20222;-83
2021/12/01 04:58:00;;;;;;;1.40;1.37;;;5.60;97.30;;;;;;4991891;28;20186;-84
2021/12/01 05:00:27;;;;;;;1.43;1.23;;;5.60;97.30;;;;;;4975858;28;20213;-84
2021/12/01 05:02:53;;;;;;;1.40;1.10;;;5.60;97.30;;;;;;4973735;28;20237;-83
2021/12/01 05:05:19;;;;;;;1.30;1.20;;;5.60;97.30;;;;;;4977509;28;20440;-84
2021/12/01 05:07:45;;;;;;;1.10;0.93;;;5.60;97.30;;;;;;5009448;28;20210;-84
2021/12/01 05:10:11;;;;;;;1.17;1.10;;;5.60;97.30;;;;;;5009876;28;20312;-84
2021/12/01 05:12:37;;;;;;;1.40;1.30;;;5.60;97.30;;;;;;5010009;28;20943;-85
2021/12/01 05:15:04;;;;;;;7.50;3.70;;;5.70;97.30;;;;;;5008857;28;20460;-84
2021/12/01 05:17:30;;;;;;;2.90;1.40;;;5.70;97.30;;;;;;4981422;28;20437;-85
2021/12/01 05:19:55;;;;;;;1.27;1.20;;;5.70;97.30;;;;;;4981817;28;20437;-86
2021/12/01 05:22:21;;;;;;;1.30;1.17;;;5.70;97.30;;;;;;4979514;28;20257;-85
2021/12/01 05:24:46;;;;;;;1.87;1.77;;;5.70;97.30;;;;;;4979890;28;20182;-87
2021/12/01 05:27:12;;;;;;;2.80;1.33;;;5.70;97.30;;;;;;4970989;28;20693;-85
2021/12/01 05:29:38;;;;;;;1.00;0.90;;;5.80;97.30;;;;;;4977511;28;20230;-85
2021/12/01 05:32:04;;;;;;;1.20;1.17;;;5.80;97.30;;;;;;4979866;28;20708;-83
2021/12/01 05:34:29;;;;;;;1.33;1.27;;;5.80;97.30;;;;;;4974800;28;20181;-86
2021/12/01 05:36:59;;;;;;;1.23;1.00;;;5.80;97.30;;;;;;4971881;28;20434;-85
2021/12/01 05:39:25;;;;;;;1.20;1.17;;;5.80;97.30;;;;;;4972825;28;20182;-84
2021/12/01 05:41:52;;;;;;;1.63;1.30;;;5.80;97.30;;;;;;4972140;28;20813;-84
2021/12/01 05:44:18;;;;;;;3.17;1.20;;;5.80;97.30;;;;;;4971485;28;20429;-85
2021/12/01 05:46:43;;;;;;;1.53;1.10;;;5.80;97.30;;;;;;4969949;28;20595;-85
2021/12/01 05:49:09;;;;;;;2.10;1.30;;;5.80;97.30;;;;;;4970442;28;20237;-86
2021/12/01 05:51:35;;;;;;;3.00;1.47;;;5.80;97.30;;;;;;4970701;28;20179;-85
2021/12/01 05:54:01;;;;;;;1.60;1.20;;;5.80;97.30;;;;;;4970498;28;20178;-84
2021/12/01 05:56:27;;;;;;;1.80;1.17;;;5.80;97.30;;;;;;4971513;28;20212;-84
2021/12/01 05:58:53;;;;;;;1.90;1.40;;;5.80;97.30;;;;;;4979726;28;20778;-83
2021/12/01 06:01:19;;;;;;;1.67;1.30;;;5.80;97.30;;;;;;4992414;28;20532;-83
2021/12/01 06:03:44;;;;;;;1.40;1.33;;;5.80;97.30;;;;;;4991084;28;20740;-85
2021/12/01 06:06:11;;;;;;;3.07;1.27;;;5.80;97.30;;;;;;4992555;28;20544;-86
2021/12/01 06:08:36;;;;;;;1.30;1.17;;;5.80;97.30;;;;;;4995784;28;20445;-83
2021/12/01 06:11:02;;;;;;;1.73;1.40;;;5.80;97.30;;;;;;4995669;28;20430;-83
2021/12/01 06:13:28;;;;;;;2.97;1.43;;;5.80;97.30;;;;;;4996704;28;20185;-84
2021/12/01 06:15:53;;;;;;;1.20;1.10;;;5.80;97.30;;;;;;4994233;28;20201;-84
2021/12/01 06:18:19;;;;;;;1.50;1.20;;;5.80;97.30;;;;;;4995376;28;20252;-86
2021/12/01 06:20:45;;;;;;;4.57;1.40;;;5.80;97.30;;;;;;4994678;28;20174;-84
2021/12/01 06:23:12;;;;;;;1.27;1.10;;;5.90;97.30;;;;;;4995781;28;20188;-84
2021/12/01 06:25:37;;;;;;;1.53;1.33;;;5.90;97.30;;;;;;4994812;28;20449;-84
2021/12/01 06:28:03;;;;;;;3.70;1.23;;;5.90;97.30;;;;;;4995186;28;20497;-84
2021/12/01 06:30:34;;;;;;;1.20;1.10;;;5.90;97.30;;;;;;4996821;28;20216;-86
2021/12/01 06:32:59;;;;;;;1.27;1.20;;;5.80;97.30;;;;;;4994753;28;20440;-84
2021/12/01 06:35:25;;;;;;;1.50;0.90;;;5.80;97.30;;;;;;4995233;28;20425;-87
2021/12/01 06:37:52;;;;;;;1.83;1.40;;;5.80;97.30;;;;;;4996737;28;20178;-84
2021/12/01 06:40:17;;;;;;;2.00;1.47;;;5.80;97.30;;;;;;4994819;28;20186;-84
2021/12/01 06:42:43;;;;;;;2.20;1.47;;;5.80;97.30;;;;;;4996089;28;20435;-84
2021/12/01 06:45:11;;;;;;;3.23;1.10;;;5.80;97.30;;;;;;4995984;28;20186;-84
2021/12/01 06:47:37;;;;;;;2.20;1.40;;;5.80;97.30;;;;;;4995629;28;20198;-84
2021/12/01 06:50:04;;;;;;;1.20;1.10;;;5.80;97.30;;;;;;4994777;28;20974;-86
2021/12/01 06:52:30;;;;;;;1.30;1.20;;;5.80;97.30;;;;;;4994294;28;20902;-84
2021/12/01 06:54:57;;;;;;;3.00;1.30;;;5.80;97.30;;;;;;4993660;28;20409;-86
2021/12/01 06:57:23;;;;;;;2.50;1.17;;;5.90;97.30;;;;;;4994386;28;20854;-87
2021/12/01 06:59:48;;;;;;;3.23;1.20;;;5.90;97.30;;;;;;4980069;28;20474;-86
2021/12/01 07:02:15;;;;;;;3.80;1.00;;;5.90;97.30;;;;;;4976308;28;20778;-84
2021/12/01 07:04:41;;;;;;;1.23;1.20;;;5.90;97.30;;;;;;4982089;28;20200;-85
2021/12/01 07:07:07;;;;;;;1.37;1.27;;;5.90;97.30;;;;;;4999739;28;20959;-85
2021/12/01 07:09:32;;;;;;;1.33;1.17;;;6.00;97.30;;;;;;5001729;28;20201;-84
2021/12/01 07:11:58;;;;;;;1.10;1.00;;;5.90;97.30;;;;;;5000117;28;20570;-84
2021/12/01 07:14:23;;;;;;;1.37;1.27;;;5.90;97.30;;;;;;5000619;28;20197;-87
2021/12/01 07:16:49;;;;;;;1.37;1.10;;;5.90;97.30;;;;;;5003332;28;20206;-85
2021/12/01 07:19:15;;;;;;;1.20;1.17;;;5.90;97.30;;;;;;5002792;28;20201;-84
2021/12/01 07:21:41;;;;;;;2.40;1.30;;;5.90;97.30;;;;;;4999879;28;20428;-84
2021/12/01 07:24:07;;;;;;;0.90;0.90;;;5.90;97.30;;;;;;5002641;28;20417;-85
2021/12/01 07:26:33;;;;;;;2.77;1.10;;;5.90;97.30;;;;;;5000431;28;20216;-86
2021/12/01 07:28:59;;;;;;;1.60;1.43;;;5.90;97.30;;;;;;5000655;28;20207;-86
2021/12/01 07:31:25;;;;;;;2.13;1.50;;;5.90;97.30;;;;;;5000090;28;20185;-85
2021/12/01 07:33:51;;;;;;;1.20;1.17;;;5.90;97.30;;;;;;5001384;28;20455;-87
2021/12/01 07:36:17;;;;;;;1.33;1.23;;;5.90;97.30;;;;;;5001392;28;20202;-85
2021/12/01 07:38:43;;;;;;;3.07;1.50;;;5.90;97.30;;;;;;4998992;28;20188;-85
2021/12/01 07:41:09;;;;;;;2.93;1.10;;;6.00;97.30;;;;;;4999392;28;20437;-82
2021/12/01 07:43:35;;;;;;;1.73;1.30;;;6.00;97.30;;;;;;4997962;28;20421;-87
2021/12/01 07:46:01;;;;;;;2.90;1.47;;;6.00;97.30;;;;;;4996400;28;20205;-85
2021/12/01 07:48:27;;;;;;;3.27;1.53;;;6.00;97.30;;;;;;4996761;28;20182;-85
2021/12/01 07:50:53;;;;;;;1.20;1.20;;;6.00;97.30;;;;;;4995159;28;20507;-87
2021/12/01 07:53:19;;;;;;;1.30;1.20;;;6.00;97.30;;;;;;4994428;28;20447;-83
2021/12/01 07:55:44;;;;;;;2.00;1.57;;;6.10;97.30;;;;;;4993153;28;20499;-85
2021/12/01 07:58:10;;;;;;;1.70;1.40;;;6.10;97.30;;;;;;4994539;28;20201;-82
2021/12/01 08:00:36;;;;;;;4.00;1.30;;;6.10;97.30;;;;;;4997428;28;20178;-81
2021/12/01 08:03:01;;;;;;;1.40;1.20;;;6.20;97.30;;;;;;4999928;28;20225;-83
2021/12/01 08:05:27;;;;;;;1.77;1.50;;;6.20;97.30;;;;;;5000376;28;20181;-83
2021/12/01 08:07:55;;;;;;;1.77;1.63;;;6.20;97.30;;;;;;5000766;28;20186;-79
2021/12/01 08:10:20;;;;;;;2.40;1.50;;;6.20;97.30;;;;;;5001328;28;20205;-85
2021/12/01 08:12:46;;;;;;;1.70;1.30;;;6.30;97.30;;;;;;5001839;28;20448;-84
2021/12/01 08:15:12;;;;;;;2.67;1.80;;;6.30;97.30;;;;;;5001190;28;20177;-85
2021/12/01 08:17:37;;;;;;;3.13;1.77;;;6.30;97.30;;;;;;5000837;28;20206;-84
2021/12/01 08:20:04;;;;;;;2.03;1.70;;;6.30;97.30;;;;;;5000289;28;20213;-85
2021/12/01 08:22:29;;;;;;;1.63;1.53;;;6.30;97.30;;;;;;4999286;28;20236;-84
2021/12/01 08:24:57;;;;;;;1.70;1.53;;;6.40;97.30;;;;;;5001483;28;20457;-84
2021/12/01 08:27:24;;;;;;;2.10;1.50;;;6.40;97.30;;;;;;4999368;28;20193;-84
2021/12/01 08:29:50;;;;;;;1.90;1.43;;;6.40;97.30;;;;;;5001411;28;20998;-84
2021/12/01 08:32:16;;;;;;;1.60;1.50;;;6.40;97.30;;;;;;4999357;28;20468;-85
2021/12/01 08:34:43;;;;;;;2.93;2.00;;;6.40;97.30;;;;;;4998784;28;20425;-85
2021/12/01 08:37:10;;;;;;;2.10;1.70;;;6.40;97.30;;;;;;4999578;28;20293;-83
2021/12/01 08:39:36;;;;;;;2.90;1.83;;;6.40;97.30;;;;;;5002065;28;20421;-84
2021/12/01 08:42:02;;;;;;;3.60;1.80;;;6.50;97.30;;;;;;4999234;28;20440;-81
2021/12/01 08:44:28;;;;;;;2.87;1.70;;;6.50;97.30;;;;;;4999014;28;20670;-85
2021/12/01 08:46:54;;;;;;;1.90;1.50;;;6.50;97.30;;;;;;4997805;28;20440;-84
2021/12/01 08:49:19;;;;;;;1.63;1.57;;;6.50;97.30;;;;;;4999800;28;20441;-83
2021/12/01 08:51:45;;;;;;;2.60;1.50;;;6.50;97.30;;;;;;4997607;28;20421;-85
2021/12/01 08:54:13;;;;;;;2.37;1.60;;;6.60;97.30;;;;;;5000672;28;20188;-83
2021/12/01 08:56:40;;;;;;;1.57;1.40;;;6.60;97.30;;;;;;4999600;28;20676;-84
2021/12/01 08:59:06;;;;;;;2.03;1.70;;;6.60;97.30;;;;;;5002260;28;20409;-83
2021/12/01 09:01:32;;;;;;;1.63;1.53;;;6.60;97.30;;;;;;4998499;28;20542;-83
2021/12/01 09:03:58;;;;;;;2.10;1.70;;;6.70;97.30;;;;;;5002189;28;20178;-84
2021/12/01 09:06:24;;;;;;;3.33;1.80;;;6.70;97.30;;;;;;5000138;28;20693;-86
2021/12/01 09:08:50;;;;;;;1.33;1.30;;;6.70;97.30;;;;;;5002679;28;20488;-84
2021/12/01 09:11:17;;;;;;;7.83;1.57;;;6.70;97.30;;;;;;5001949;28;20663;-85
2021/12/01 09:13:43;;;;;;;1.80;1.70;;;6.70;97.30;;;;;;5017967;28;20413;-87
2021/12/01 09:16:09;;;;;;;1.93;1.57;;;6.80;97.30;;;;;;5016170;28;20433;-83
2021/12/01 09:18:35;;;;;;;1.57;1.50;;;6.70;97.30;;;;;;5016677;28;20170;-86
2021/12/01 09:21:01;;;;;;;2.30;1.70;;;6.80;97.30;;;;;;5016375;28;20268;-85
2021/12/01 09:23:28;;;;;;;1.70;1.60;;;6.80;97.30;;;;;;5000529;28;20265;-85
2021/12/01 09:25:53;;;;;;;1.90;1.67;;;6.80;97.30;;;;;;5015756;28;20436;-84
2021/12/01 09:28:22;;;;;;;1.97;1.80;;;6.80;97.30;;;;;;5017533;28;20501;-86
2021/12/01 09:30:48;;;;;;;2.40;1.47;;;6.80;97.30;;;;;;5018217;28;20240;-83
2021/12/01 09:33:15;;;;;;;1.63;1.53;;;6.80;97.30;;;;;;5019716;28;20413;-83
2021/12/01 09:35:41;;;;;;;2.00;1.50;;;6.90;97.30;;;;;;5018102;28;20480;-81
2021/12/01 09:38:08;;;;;;;2.00;1.67;;;6.90;97.30;;;;;;5017360;28;20432;-80
2021/12/01 09:40:33;;;;;;;2.73;1.93;;;6.90;97.30;;;;;;5015478;28;20456;-85
2021/12/01 09:42:59;;;;;;;5.00;2.13;;;6.90;97.30;;;;;;5017039;28;20452;-85
2021/12/01 09:45:27;;;;;;;3.30;2.27;;;7.00;97.30;;;;;;5016735;28;20188;-79
2021/12/01 09:47:53;;;;;;;3.27;1.90;;;7.00;97.30;;;;;;5018000;28;20221;-83
2021/12/01 09:50:19;;;;;;;4.77;1.90;;;7.00;97.30;;;;;;5018536;28;20460;-83
2021/12/01 09:52:45;;;;;;;2.20;2.00;;;7.00;97.30;;;;;;5018649;28;20405;-83
2021/12/01 09:55:13;;;;;;;2.60;1.87;;;7.00;97.30;;;;;;5018378;28;20524;-82
2021/12/01 09:57:52;;;;;;;2.03;1.50;;;7.00;97.30;;;;;;5018660;28;20200;-79
2021/12/01 10:00:18;;;;;;;1.43;1.40;;;7.10;97.30;;;;;;4998715;28;20440;-83
2021/12/01 10:02:43;;;;;;;1.50;1.40;;;7.10;97.30;;;;;;4983412;28;20498;-84
2021/12/01 10:05:09;;;;;;;1.20;1.10;;;7.10;97.30;;;;;;4983873;28;20187;-87
2021/12/01 10:07:35;;;;;;;1.43;1.33;;;7.10;97.30;;;;;;4983972;28;20277;-83
2021/12/01 10:10:09;;;;;;;1.13;1.03;;;7.10;97.30;;;;;;4984209;28;20202;-83
2021/12/01 10:12:51;;;;;;;3.17;1.80;;;7.10;97.30;;;;;;4984480;28;20440;-87
2021/12/01 10:15:30;;;;;;;2.10;1.40;;;7.20;97.30;;;;;;4983073;28;20428;-81
2021/12/01 10:18:14;;;;;;;2.13;1.57;;;7.20;97.30;;;;;;4983278;28;20417;-83
2021/12/01 10:20:40;;;;;;;1.80;1.30;;;7.20;97.30;;;;;;4983302;28;20497;-85
2021/12/01 10:23:09;;;;;;;2.43;1.47;;;7.20;97.30;;;;;;4983365;28;20428;-83
2021/12/01 10:25:35;;;;;;;2.20;1.10;;;7.20;97.30;;;;;;4983059;28;20818;-82
2021/12/01 10:28:01;;;;;;;1.50;1.40;;;7.20;97.30;;;;;;4983813;28;20602;-83
2021/12/01 10:30:44;;;;;;;4.60;1.40;;;7.20;97.30;;;;;;4983360;28;20493;-83
2021/12/01 10:33:13;;;;;;;1.57;1.10;;;7.10;97.30;;;;;;4984432;28;20356;-82
2021/12/01 10:35:39;;;;;;;2.03;1.50;;;7.10;97.30;;;;;;4984694;28;20510;-83
2021/12/01 10:38:07;;;;;;;1.43;1.30;;;7.10;97.30;;;;;;4983395;28;20485;-84
2021/12/01 10:40:34;;;;;;;3.73;1.43;;;7.10;97.30;;;;;;4985043;28;20426;-83
2021/12/01 10:43:06;;;;;;;2.43;1.50;;;7.10;97.30;;;;;;5019358;28;20417;-82
2021/12/01 10:45:40;;;;;;;1.57;1.33;;;7.10;97.30;;;;;;4969907;28;20414;-85
2021/12/01 10:48:09;;;;;;;1.30;1.20;;;7.10;97.30;;;;;;4970202;28;20426;-85
2021/12/01 10:50:39;;;;;;;1.37;1.27;;;7.20;97.30;;;;;;4969714;28;20465;-85
2021/12/01 10:53:12;;;;;;;1.67;1.37;;;7.20;97.30;;;;;;4970351;28;20778;-85
2021/12/01 10:55:44;;;;;;;1.40;1.30;;;7.20;97.30;;;;;;4971981;28;20444;-85
2021/12/01 10:58:09;;;;;;;3.73;1.70;;;7.20;97.30;;;;;;4975890;28;20924;-85
2021/12/01 11:00:43;;;;;;;2.80;1.47;;;7.30;97.30;;;;;;4991689;28;20435;-84
2021/12/01 11:03:18;;;;;;;1.53;1.40;;;7.30;97.30;;;;;;4989753;28;20547;-84
2021/12/01 11:05:56;;;;;;;1.20;1.10;;;7.30;97.30;;;;;;4990415;28;20468;-84
2021/12/01 11:08:27;;;;;;;1.60;1.50;;;7.40;97.30;;;;;;4975252;28;20418;-86
2021/12/01 11:11:14;;;;;;;1.50;1.40;;;7.40;97.30;;;;;;4989299;28;20472;-85
2021/12/01 11:13:46;;;;;;;3.30;1.73;;;7.40;97.30;;;;;;4990009;28;20922;-83
2021/12/01 11:16:13;;;;;;;1.77;1.43;;;7.50;97.30;;;;;;4991813;28;20444;-85
2021/12/01 11:18:41;;;;;;;1.57;1.30;;;7.50;97.30;;;;;;4993067;28;20413;-85
2021/12/01 11:21:10;;;;;;;1.40;1.30;;;7.50;97.30;;;;;;4992250;28;20421;-81
2021/12/01 11:23:38;;;;;;;2.90;1.40;;;7.50;97.30;;;;;;4992447;28;20782;-85
2021/12/01 11:26:13;;;;;;;2.80;1.80;;;7.40;97.30;;;;;;4992209;28;20834;-86
2021/12/01 11:28:45;;;;;;;1.30;1.20;;;7.50;97.30;;;;;;4992272;28;20789;-85
2021/12/01 11:31:33;;;;;;;3.80;1.40;;;7.50;97.30;;;;;;4991865;28;20517;-85
2021/12/01 11:34:02;;;;;;;1.43;1.33;;;7.50;97.30;;;;;;4992233;28;20431;-85
2021/12/01 11:36:31;;;;;;;2.23;1.23;;;7.50;97.30;;;;;;4992038;28;20429;-85
2021/12/01 11:39:00;;;;;;;1.43;1.40;;;7.50;97.30;;;;;;4992046;28;20428;-84
2021/12/01 11:41:28;;;;;;;2.33;1.40;;;7.50;97.30;;;;;;4991734;28;20448;-84
2021/12/01 11:43:54;;;;;;;1.30;1.30;;;7.50;97.30;;;;;;4992253;28;20939;-85
2021/12/01 11:46:20;;;;;;;3.27;1.30;;;7.60;97.30;;;;;;4992315;28;20804;-84
2021/12/01 11:48:52;;;;;;;1.37;1.33;;;7.60;97.30;;;;;;4991663;28;20497;-84
2021/12/01 11:51:38;;;;;;;2.20;1.23;;;7.60;97.30;;;;;;4993496;28;20198;-85
2021/12/01 11:54:13;;;;;;;1.90;1.73;;;7.60;97.30;;;;;;4992108;28;20414;-85
2021/12/01 11:57:04;;;;;;;1.23;1.13;;;7.70;97.30;;;;;;4991578;28;20429;-85
2021/12/01 11:59:37;;;;;;;1.63;1.53;;;7.70;97.30;;;;;;4991743;28;20508;-82
2021/12/01 12:02:15;;;;;;;1.37;1.30;;;7.70;97.30;;;;;;4991374;28;20568;-83
2021/12/01 12:04:49;;;;;;;1.33;1.23;;;7.80;97.30;;;;;;4992036;28;20513;-86
2021/12/01 12:07:22;;;;;;;1.60;1.10;;;7.80;97.30;;;;;;4991488;28;20451;-83
2021/12/01 12:10:14;;;;;;;1.43;1.10;;;7.90;97.30;;;;;;4991530;28;20475;-84
2021/12/01 12:12:44;;;;;;;1.80;1.00;;;7.90;97.30;;;;;;4991827;28;20424;-84
2021/12/01 12:15:10;;;;;;;1.53;1.33;;;7.90;97.30;;;;;;4991474;28;20429;-84
2021/12/01 12:17:36;;;;;;;2.30;1.40;;;7.90;97.30;;;;;;4991916;28;20436;-85
2021/12/01 12:20:11;;;;;;;1.03;1.03;;;7.90;97.30;;;;;;4991229;28;20182;-84
2021/12/01 12:22:39;;;;;;;1.43;1.33;;;8.00;97.30;;;;;;4991383;28;20446;-84
2021/12/01 12:25:09;;;;;;;1.17;1.10;;;8.00;97.30;;;;;;4991203;28;20417;-84
2021/12/01 12:27:55;;;;;;;1.13;1.03;;;8.00;97.30;;;;;;4992444;28;20512;-84
2021/12/01 12:30:29;;;;;;;1.90;1.33;;;8.00;97.30;;;;;;4990643;28;20465;-84
2021/12/01 12:33:17;;;;;;;1.40;1.30;;;8.00;97.30;;;;;;4991270;28;20680;-83
2021/12/01 12:35:47;;;;;;;1.83;1.20;;;8.00;97.30;;;;;;4992412;28;20511;-84
2021/12/01 12:38:14;;;;;;;1.73;1.23;;;8.00;97.30;;;;;;4991064;28;20467;-85
2021/12/01 12:40:39;;;;;;;1.33;1.20;;;8.00;97.30;;;;;;4991057;28;20423;-84
2021/12/01 12:43:06;;;;;;;1.20;1.10;;;8.00;97.30;;;;;;4991307;28;20495;-85
2021/12/01 12:45:32;;;;;;;1.30;1.20;;;8.00;97.30;;;;;;4990335;28;20185;-84
2021/12/01 12:47:58;;;;;;;1.37;1.10;;;8.00;97.30;;;;;;4990793;28;20417;-83
2021/12/01 12:50:24;;;;;;;1.23;1.07;;;8.00;97.30;;;;;;4990391;28;20830;-83
2021/12/01 12:53:03;;;;;;;1.70;1.30;;;8.00;97.30;;;;;;4990635;28;20182;-84
2021/12/01 12:55:29;;;;;;;1.13;1.07;;;8.10;97.30;;;;;;4990198;28;20421;-84
2021/12/01 12:57:58;;;;;;;2.40;1.30;;;8.10;97.30;;;;;;4991641;28;20405;-84
2021/12/01 13:00:50;;;;;;;1.83;1.50;;;8.10;97.30;;;;;;4990167;28;20174;-84
2021/12/01 13:03:22;;;;;;;1.20;1.10;;;8.10;97.30;;;;;;4990489;28;20456;-84
2021/12/01 13:05:50;;;;;;;1.30;1.17;;;8.20;97.30;;;;;;4981002;28;20442;-85
2021/12/01 13:08:33;;;;;;;1.40;1.20;;;8.20;97.30;;;;;;4971166;28;20418;-83
2021/12/01 13:11:01;;;;;;;1.30;1.03;;;8.20;97.30;;;;;;4971212;28;20480;-84
2021/12/01 13:13:34;;;;;;;1.27;1.17;;;8.20;97.30;;;;;;4988670;28;20919;-85